Terminal Aerodrome Forecast
Issued by NWS

Home | Current Version | Previous Version | Text Only | Print | Product List | Glossary On
Versions: 1 2 3 4 5 6 7 8 9 10 11 12 13 14 15 16 17 18 19 20 21
000
FTUS46 KMFR 072341 RRA
TAFRBG
TAF
KRBG 072341Z 0800/0824 VRB02KT P6SM SKC
     FM080900 VRB03KT P6SM VCSH BKN040 OVC100
     FM081200 16005KT 5SM -RA BR BKN035 OVC050
     FM081600 17005KT 5SM -RA BR BKN015 OVC040
     FM082100 16003KT P6SM -RA BKN008 OVC020=

USA.gov is the U.S. government's official web portal to all federal, state and local government web resources and services.